Time;durP1;ratioP1;P1;durP2;ratioP2;P2;SDS_P1;SDS_P2;PMS_P1;PMS_P2;Temp;Humidity;BMP_temperature;BMP_pressure;BME280_temperature;BME280_humidity;BME280_pressure;Samples;Min_cycle;Max_cycle;Signal;HPM_P1;HPM_P2
2023/11/07 00:01:54;;;;;;;9.60;2.30;;;10.30;1.00;;;;;;5100903;28;20198;-80
2023/11/07 00:04:21;;;;;;;7.07;2.53;;;10.30;1.00;;;;;;5092975;28;20197;-80
2023/11/07 00:06:48;;;;;;;5.50;2.20;;;10.40;1.00;;;;;;5106116;28;20289;-81
2023/11/07 00:09:17;;;;;;;4.57;2.40;;;10.40;1.00;;;;;;5096451;28;20955;-80
2023/11/07 00:11:43;;;;;;;6.63;2.13;;;10.30;1.00;;;;;;5098247;28;20244;-80
2023/11/07 00:14:10;;;;;;;7.60;2.50;;;10.50;1.00;;;;;;5104534;28;20193;-79
2023/11/07 00:16:37;;;;;;;6.40;3.10;;;10.50;1.00;;;;;;5106330;28;20205;-81
2023/11/07 00:19:05;;;;;;;5.43;2.10;;;10.50;1.00;;;;;;5106089;28;20280;-80
2023/11/07 00:21:32;;;;;;;6.90;2.60;;;10.50;1.00;;;;;;5101600;28;20202;-80
2023/11/07 00:23:59;;;;;;;4.27;2.17;;;10.50;1.00;;;;;;5106325;28;20202;-81
2023/11/07 00:26:27;;;;;;;5.47;2.20;;;10.50;1.00;;;;;;5105589;28;20265;-81
2023/11/07 00:28:53;;;;;;;8.50;2.40;;;10.50;1.00;;;;;;5106263;28;20208;-80
2023/11/07 00:31:20;;;;;;;3.00;1.87;;;10.50;1.00;;;;;;5104921;28;20241;-81
2023/11/07 00:33:48;;;;;;;4.60;2.00;;;10.50;1.00;;;;;;5105673;28;20224;-80
2023/11/07 00:36:16;;;;;;;6.50;1.80;;;10.50;1.00;;;;;;5105699;28;20205;-80
2023/11/07 00:38:43;;;;;;;4.07;1.67;;;10.40;1.00;;;;;;5104675;28;20217;-81
2023/11/07 00:41:10;;;;;;;3.47;1.57;;;10.40;1.00;;;;;;5105357;28;20795;-81
2023/11/07 00:43:39;;;;;;;4.10;1.60;;;10.60;1.00;;;;;;5100941;28;20206;-80
2023/11/07 00:46:06;;;;;;;4.13;1.57;;;10.50;1.00;;;;;;5092842;28;20741;-79
2023/11/07 00:48:33;;;;;;;4.33;1.50;;;10.50;99.90;;;;;;5106417;28;20284;-80
2023/11/07 00:51:00;;;;;;;3.87;1.50;;;10.50;1.00;;;;;;5105000;28;20228;-80
2023/11/07 00:53:27;;;;;;;6.63;1.77;;;10.50;99.90;;;;;;5103173;28;20632;-80
2023/11/07 00:55:54;;;;;;;5.17;1.87;;;10.50;99.90;;;;;;5101315;28;20268;-80
2023/11/07 00:58:21;;;;;;;2.63;1.50;;;10.50;99.90;;;;;;5101976;28;20571;-80
2023/11/07 01:00:50;;;;;;;5.70;1.67;;;10.60;99.90;;;;;;5101383;28;20220;-80
2023/11/07 01:03:16;;;;;;;2.37;1.50;;;10.50;99.90;;;;;;5104338;28;20200;-81
2023/11/07 01:05:43;;;;;;;5.77;2.20;;;10.50;99.90;;;;;;5097095;28;20292;-81
2023/11/07 01:08:10;;;;;;;7.63;2.23;;;10.40;99.90;;;;;;5100058;28;20269;-80
2023/11/07 01:10:37;;;;;;;14.87;1.60;;;10.40;99.90;;;;;;5097305;28;20228;-81
2023/11/07 01:13:03;;;;;;;3.53;1.13;;;10.40;99.90;;;;;;5093364;28;20209;-81
2023/11/07 01:15:30;;;;;;;2.73;1.30;;;10.40;99.90;;;;;;5098553;28;20251;-81
2023/11/07 01:17:59;;;;;;;3.97;1.30;;;10.50;99.90;;;;;;5099771;28;20646;-81
2023/11/07 01:20:26;;;;;;;6.13;1.40;;;10.50;99.90;;;;;;5098015;28;20387;-81
2023/11/07 01:22:53;;;;;;;2.13;1.50;;;10.50;99.90;;;;;;5100216;28;20220;-80
2023/11/07 01:25:19;;;;;;;6.20;1.40;;;10.40;1.00;;;;;;5096503;28;20202;-80
2023/11/07 01:27:46;;;;;;;4.93;1.30;;;10.40;99.90;;;;;;5100970;28;20285;-80
2023/11/07 01:30:14;;;;;;;2.77;1.10;;;10.40;1.00;;;;;;5095802;28;20236;-80
2023/11/07 01:32:42;;;;;;;8.00;1.40;;;10.40;99.90;;;;;;5097951;28;20225;-78
2023/11/07 01:35:10;;;;;;;3.03;1.60;;;10.30;1.00;;;;;;5095515;28;20242;-80
2023/11/07 01:37:37;;;;;;;4.57;1.20;;;10.40;99.90;;;;;;5095985;28;20197;-79
2023/11/07 01:40:05;;;;;;;4.80;1.60;;;10.40;99.90;;;;;;5097905;28;20245;-80
2023/11/07 01:42:31;;;;;;;5.40;1.57;;;10.30;1.00;;;;;;5103715;28;20186;-80
2023/11/07 01:44:59;;;;;;;6.50;1.83;;;10.30;1.00;;;;;;5101606;28;20198;-80
2023/11/07 01:47:26;;;;;;;3.83;1.33;;;10.40;99.90;;;;;;5103473;28;20232;-79
2023/11/07 01:49:53;;;;;;;3.87;1.30;;;10.30;99.90;;;;;;5099086;28;20253;-81
2023/11/07 01:52:22;;;;;;;3.23;1.50;;;10.30;99.90;;;;;;5101363;28;20236;-80
2023/11/07 01:54:52;;;;;;;3.97;1.30;;;10.30;99.90;;;;;;5103118;28;20194;-80
2023/11/07 01:57:20;;;;;;;1.60;1.17;;;10.30;99.90;;;;;;5096415;28;20202;-81
2023/11/07 01:59:48;;;;;;;2.97;1.40;;;10.30;99.90;;;;;;5101185;28;20217;-80
2023/11/07 02:02:18;;;;;;;9.80;1.80;;;10.30;99.90;;;;;;5098520;28;20198;-79
2023/11/07 02:04:45;;;;;;;4.23;1.23;;;10.30;99.90;;;;;;5101294;28;20284;-81
2023/11/07 02:07:12;;;;;;;4.93;1.30;;;10.30;99.90;;;;;;5087532;28;20553;-82
2023/11/07 02:09:41;;;;;;;8.70;1.67;;;10.30;99.90;;;;;;5083647;28;20230;-82
2023/11/07 02:12:09;;;;;;;3.37;1.27;;;10.30;99.90;;;;;;5088909;28;20201;-82
2023/11/07 02:14:36;;;;;;;4.23;1.40;;;10.30;99.90;;;;;;5090631;28;20197;-82
2023/11/07 02:17:03;;;;;;;4.33;1.37;;;10.30;99.90;;;;;;5092351;28;20194;-82
2023/11/07 02:19:30;;;;;;;4.67;1.60;;;10.30;99.90;;;;;;5094234;28;20228;-81
2023/11/07 02:22:00;;;;;;;3.73;1.13;;;10.30;1.00;;;;;;5096379;28;20212;-82
2023/11/07 02:24:29;;;;;;;4.43;1.20;;;10.10;1.00;;;;;;5095495;28;20202;-82
2023/11/07 02:26:56;;;;;;;2.37;1.00;;;10.20;99.90;;;;;;5096096;28;20190;-82
2023/11/07 02:29:22;;;;;;;2.97;1.30;;;10.10;1.00;;;;;;5088110;28;20316;-82
2023/11/07 02:31:50;;;;;;;5.40;1.30;;;10.20;99.90;;;;;;5096518;28;20211;-82
2023/11/07 02:34:17;;;;;;;4.60;1.60;;;10.20;1.00;;;;;;5096441;28;20221;-82
2023/11/07 02:36:44;;;;;;;5.40;1.80;;;10.10;1.00;;;;;;5092729;28;20198;-82
2023/11/07 02:39:12;;;;;;;5.40;2.03;;;10.00;1.00;;;;;;5088073;28;20212;-82
2023/11/07 02:41:40;;;;;;;5.57;1.33;;;9.90;1.00;;;;;;5096101;28;20213;-82
2023/11/07 02:44:09;;;;;;;3.70;1.10;;;9.90;1.00;;;;;;5094812;28;20212;-82
2023/11/07 02:46:37;;;;;;;3.47;1.13;;;9.80;1.00;;;;;;5088339;28;20463;-82
2023/11/07 02:49:04;;;;;;;5.83;1.80;;;9.90;1.00;;;;;;5087803;28;20218;-82
2023/11/07 02:51:31;;;;;;;3.10;0.93;;;9.90;1.00;;;;;;5095649;28;20679;-82
2023/11/07 02:53:57;;;;;;;3.10;1.30;;;9.80;1.00;;;;;;5086930;28;20222;-82
2023/11/07 02:56:26;;;;;;;2.43;1.20;;;9.80;1.00;;;;;;5089667;28;20201;-82
2023/11/07 02:58:54;;;;;;;5.90;1.20;;;9.80;1.00;;;;;;5095963;28;20198;-82
2023/11/07 03:01:21;;;;;;;4.97;1.30;;;9.80;1.00;;;;;;5089649;28;20236;-81
2023/11/07 03:03:50;;;;;;;4.53;1.43;;;9.80;1.00;;;;;;5086121;28;20203;-82
2023/11/07 03:06:16;;;;;;;2.80;1.43;;;9.80;1.00;;;;;;5095093;28;20240;-82
2023/11/07 03:08:43;;;;;;;3.50;2.00;;;9.80;1.00;;;;;;5090391;28;20213;-82
2023/11/07 03:11:10;;;;;;;5.07;1.40;;;9.80;1.00;;;;;;5089899;28;20215;-82
2023/11/07 03:13:37;;;;;;;4.43;1.40;;;9.80;1.00;;;;;;5088650;28;20231;-82
2023/11/07 03:16:06;;;;;;;2.13;1.13;;;9.80;1.00;;;;;;5091164;28;20208;-82
2023/11/07 03:18:33;;;;;;;4.83;1.30;;;9.80;1.00;;;;;;5083639;28;20194;-81
2023/11/07 03:21:00;;;;;;;2.80;1.43;;;9.70;1.00;;;;;;5089939;28;20225;-81
2023/11/07 03:23:27;;;;;;;3.47;1.07;;;9.70;1.00;;;;;;5095206;28;20198;-82
2023/11/07 03:25:54;;;;;;;3.50;1.00;;;9.80;1.00;;;;;;5086431;28;20204;-81
2023/11/07 03:28:21;;;;;;;3.80;1.20;;;9.90;1.00;;;;;;5083912;28;20205;-82
2023/11/07 03:30:48;;;;;;;3.40;1.00;;;9.90;1.00;;;;;;5095545;28;20227;-81
2023/11/07 03:33:17;;;;;;;2.47;1.43;;;9.90;1.00;;;;;;5079316;28;20642;-82
2023/11/07 03:35:46;;;;;;;6.47;1.20;;;9.80;1.00;;;;;;5092274;28;20194;-82
2023/11/07 03:38:13;;;;;;;3.10;0.80;;;9.90;1.00;;;;;;5077602;28;20194;-84
2023/11/07 03:40:40;;;;;;;2.53;1.30;;;9.80;1.00;;;;;;5094157;28;20239;-81
2023/11/07 03:43:07;;;;;;;4.13;2.37;;;9.90;1.00;;;;;;5096077;28;20205;-80
2023/11/07 03:45:34;;;;;;;6.47;1.43;;;9.80;1.00;;;;;;5088450;28;20210;-80
2023/11/07 03:48:01;;;;;;;4.20;1.10;;;9.90;1.00;;;;;;5091864;28;20206;-81
2023/11/07 03:50:30;;;;;;;6.30;1.50;;;9.80;1.00;;;;;;5085673;28;20237;-81
2023/11/07 03:52:57;;;;;;;4.47;1.37;;;9.80;1.00;;;;;;5083424;28;20224;-81
2023/11/07 03:55:24;;;;;;;4.00;1.50;;;9.70;1.00;;;;;;5095073;28;20204;-82
2023/11/07 03:57:51;;;;;;;2.63;1.17;;;9.60;1.00;;;;;;5094908;28;20601;-81
2023/11/07 04:00:19;;;;;;;2.53;1.20;;;9.70;1.00;;;;;;5095563;28;20600;-80
2023/11/07 04:02:46;;;;;;;3.07;1.07;;;9.70;1.00;;;;;;5081879;28;20266;-81
2023/11/07 04:05:13;;;;;;;3.33;1.17;;;9.80;1.00;;;;;;5080594;28;20202;-80
2023/11/07 04:07:41;;;;;;;4.20;1.00;;;9.80;1.00;;;;;;5079538;28;20202;-80
2023/11/07 04:10:09;;;;;;;1.83;1.03;;;9.70;1.00;;;;;;5088237;28;20281;-81
2023/11/07 04:12:36;;;;;;;4.53;1.20;;;9.70;1.00;;;;;;5087825;28;20202;-80
2023/11/07 04:15:06;;;;;;;6.67;1.17;;;9.70;1.00;;;;;;5080783;28;20205;-81
2023/11/07 04:17:34;;;;;;;4.77;1.40;;;9.80;1.00;;;;;;5095289;28;20206;-83
2023/11/07 04:20:01;;;;;;;2.80;1.10;;;9.80;1.00;;;;;;5076269;28;20230;-81
2023/11/07 04:22:28;;;;;;;13.20;6.67;;;9.70;1.00;;;;;;5081860;28;20213;-81
2023/11/07 04:24:57;;;;;;;5.10;2.10;;;9.70;1.00;;;;;;5087442;28;20198;-81
2023/11/07 04:27:24;;;;;;;2.50;1.00;;;9.70;1.00;;;;;;5098950;28;20223;-81
2023/11/07 04:29:50;;;;;;;1.17;0.90;;;9.70;1.00;;;;;;5090315;28;20230;-80
2023/11/07 04:32:17;;;;;;;4.77;1.17;;;9.70;1.00;;;;;;5098988;28;20289;-81
2023/11/07 04:34:44;;;;;;;5.53;1.50;;;9.80;1.00;;;;;;5097568;28;20221;-81
2023/11/07 04:37:11;;;;;;;4.93;1.27;;;9.90;1.00;;;;;;5098717;28;20561;-81
2023/11/07 04:39:38;;;;;;;4.87;1.40;;;9.90;1.00;;;;;;5097873;28;20229;-81
2023/11/07 04:42:07;;;;;;;5.33;1.13;;;9.80;1.00;;;;;;5094972;28;20202;-81
2023/11/07 04:44:34;;;;;;;3.13;1.10;;;9.90;1.00;;;;;;5085609;28;20267;-81
2023/11/07 04:47:02;;;;;;;2.33;1.10;;;9.90;1.00;;;;;;5095680;28;20216;-81
2023/11/07 04:49:29;;;;;;;5.83;1.20;;;9.90;1.00;;;;;;5086402;28;20235;-80
2023/11/07 04:51:56;;;;;;;6.03;1.17;;;9.90;1.00;;;;;;5094773;28;20213;-81
2023/11/07 04:54:23;;;;;;;6.13;1.33;;;9.90;1.00;;;;;;5092403;28;20308;-81
2023/11/07 04:56:54;;;;;;;2.13;0.93;;;9.90;1.00;;;;;;5097631;28;20258;-81
2023/11/07 04:59:22;;;;;;;4.13;1.43;;;10.00;1.00;;;;;;5098208;28;20224;-81
2023/11/07 05:01:49;;;;;;;1.17;1.00;;;10.00;1.00;;;;;;5098227;28;20201;-81
2023/11/07 05:04:16;;;;;;;2.93;0.97;;;10.10;1.00;;;;;;5093281;28;20237;-81
2023/11/07 05:06:43;;;;;;;2.20;0.87;;;10.00;1.00;;;;;;5086326;28;20218;-80
2023/11/07 05:09:12;;;;;;;1.07;0.90;;;10.00;1.00;;;;;;5094753;28;20833;-81
2023/11/07 05:11:39;;;;;;;1.70;1.17;;;10.10;1.00;;;;;;5085995;28;20201;-81
2023/11/07 05:14:07;;;;;;;1.13;0.83;;;10.10;1.00;;;;;;5089765;28;20222;-81
2023/11/07 05:16:36;;;;;;;3.50;1.23;;;10.10;1.00;;;;;;5090624;28;20630;-80
2023/11/07 05:19:02;;;;;;;1.40;1.23;;;10.10;1.00;;;;;;5097402;28;20201;-81
2023/11/07 05:21:29;;;;;;;4.97;1.13;;;10.10;1.00;;;;;;5082252;28;20561;-81
2023/11/07 05:23:56;;;;;;;2.80;1.30;;;10.10;1.00;;;;;;5086321;28;20206;-81
2023/11/07 05:26:23;;;;;;;2.47;1.20;;;10.00;1.00;;;;;;5096716;28;20201;-80
2023/11/07 05:28:50;;;;;;;2.87;1.17;;;9.90;1.00;;;;;;5097744;28;20205;-80
2023/11/07 05:31:17;;;;;;;2.43;1.10;;;10.00;1.00;;;;;;5097025;28;20332;-80
2023/11/07 05:33:46;;;;;;;2.47;1.60;;;10.00;1.00;;;;;;5088564;28;20278;-80
2023/11/07 05:36:15;;;;;;;2.20;1.00;;;10.10;1.00;;;;;;5089203;28;20208;-81
2023/11/07 05:38:43;;;;;;;4.33;0.90;;;10.00;1.00;;;;;;5096527;28;20209;-80
2023/11/07 05:41:10;;;;;;;1.83;1.20;;;10.10;1.00;;;;;;5088505;28;20256;-80
2023/11/07 05:43:37;;;;;;;4.10;0.80;;;10.00;1.00;;;;;;5097653;28;20737;-80
2023/11/07 05:46:04;;;;;;;3.40;1.03;;;10.00;1.00;;;;;;5098068;28;20205;-81
2023/11/07 05:48:32;;;;;;;3.80;1.30;;;10.00;1.00;;;;;;5097388;28;20267;-80
2023/11/07 05:51:00;;;;;;;5.10;1.20;;;10.10;1.00;;;;;;5097209;28;20222;-81
2023/11/07 05:53:27;;;;;;;4.13;1.10;;;10.00;1.00;;;;;;5088807;28;20293;-81
2023/11/07 05:55:54;;;;;;;1.63;0.90;;;9.90;1.00;;;;;;5088918;28;20206;-81
2023/11/07 05:58:21;;;;;;;1.90;1.13;;;9.90;1.00;;;;;;5097241;28;20202;-81
2023/11/07 06:00:48;;;;;;;2.90;1.13;;;9.90;1.00;;;;;;5092005;28;20224;-81
2023/11/07 06:03:15;;;;;;;2.87;1.00;;;9.90;1.00;;;;;;5096743;28;20198;-80
2023/11/07 06:05:42;;;;;;;1.63;0.73;;;9.90;1.00;;;;;;5096804;28;20205;-81
2023/11/07 06:08:10;;;;;;;2.67;1.03;;;9.80;1.00;;;;;;5096232;28;20202;-81
2023/11/07 06:10:37;;;;;;;1.33;0.93;;;9.80;1.00;;;;;;5095805;28;20231;-81
2023/11/07 06:13:05;;;;;;;2.63;1.13;;;9.80;1.00;;;;;;5096485;28;20204;-81
2023/11/07 06:15:32;;;;;;;2.50;1.00;;;9.80;1.00;;;;;;5096003;28;20253;-80
2023/11/07 06:17:59;;;;;;;3.63;1.30;;;9.80;1.00;;;;;;5096472;28;20552;-81
2023/11/07 06:20:26;;;;;;;2.23;0.93;;;9.80;1.00;;;;;;5095727;28;20232;-81
2023/11/07 06:22:53;;;;;;;1.97;0.97;;;9.60;1.00;;;;;;5096516;28;20594;-81
2023/11/07 06:25:21;;;;;;;5.47;1.30;;;9.80;1.00;;;;;;5091239;28;20201;-81
2023/11/07 06:27:49;;;;;;;2.53;1.00;;;9.80;1.00;;;;;;5094418;28;20205;-81
2023/11/07 06:30:17;;;;;;;1.57;0.90;;;9.80;1.00;;;;;;5094082;28;20253;-81
2023/11/07 06:32:45;;;;;;;1.80;0.60;;;9.70;1.00;;;;;;5095398;28;20202;-81
2023/11/07 06:35:14;;;;;;;1.57;0.90;;;9.70;1.00;;;;;;5096008;28;20233;-81
2023/11/07 06:37:41;;;;;;;2.37;0.97;;;9.80;1.00;;;;;;5088255;28;20206;-81
2023/11/07 06:40:09;;;;;;;1.77;0.80;;;9.70;1.00;;;;;;5096234;28;20596;-81
2023/11/07 06:42:39;;;;;;;2.07;0.93;;;9.70;1.00;;;;;;5095946;28;20281;-81
2023/11/07 06:45:06;;;;;;;3.30;0.90;;;9.60;1.00;;;;;;5095419;28;20206;-81
2023/11/07 06:47:33;;;;;;;2.63;0.80;;;9.60;1.00;;;;;;5087193;28;20563;-81
2023/11/07 06:50:01;;;;;;;2.80;1.10;;;9.40;1.00;;;;;;5093857;28;20229;-81
2023/11/07 06:52:27;;;;;;;1.93;0.80;;;9.40;1.00;;;;;;5094336;28;20209;-80
2023/11/07 06:54:54;;;;;;;2.20;0.90;;;9.30;1.00;;;;;;5092218;28;20224;-81
2023/11/07 06:57:21;;;;;;;4.43;1.37;;;9.10;1.00;;;;;;5080657;28;20209;-81
2023/11/07 06:59:49;;;;;;;5.50;1.20;;;9.20;1.00;;;;;;5086071;28;20230;-81
2023/11/07 07:02:16;;;;;;;2.10;1.03;;;9.20;1.00;;;;;;5094911;28;20202;-81
2023/11/07 07:04:43;;;;;;;3.63;0.90;;;9.20;1.00;;;;;;5086707;28;20202;-81
2023/11/07 07:07:12;;;;;;;1.83;0.93;;;9.10;1.00;;;;;;5095503;28;20211;-80
2023/11/07 07:09:39;;;;;;;5.17;1.23;;;9.20;1.00;;;;;;5094084;28;20279;-81
2023/11/07 07:12:07;;;;;;;6.23;0.90;;;9.10;1.00;;;;;;5093400;28;20239;-81
2023/11/07 07:14:33;;;;;;;1.30;1.00;;;9.20;1.00;;;;;;5094535;28;20221;-81
2023/11/07 07:17:03;;;;;;;3.13;1.43;;;9.30;1.00;;;;;;5092273;28;20212;-81
2023/11/07 07:19:30;;;;;;;2.47;0.90;;;9.50;1.00;;;;;;5089858;28;20221;-81
2023/11/07 07:21:59;;;;;;;2.10;0.80;;;9.40;1.00;;;;;;5094769;28;20251;-82
2023/11/07 07:24:27;;;;;;;2.80;1.10;;;9.50;1.00;;;;;;5089050;28;20252;-81
2023/11/07 07:26:55;;;;;;;7.63;1.23;;;9.50;1.00;;;;;;5083923;28;20731;-81
2023/11/07 07:29:21;;;;;;;2.53;1.07;;;9.60;1.00;;;;;;5088894;28;20240;-81
2023/11/07 07:31:48;;;;;;;2.80;0.90;;;9.70;1.00;;;;;;5092643;28;20197;-81
2023/11/07 07:34:17;;;;;;;1.17;1.07;;;9.70;1.00;;;;;;5092992;28;20591;-81
2023/11/07 07:36:44;;;;;;;1.43;0.77;;;9.70;1.00;;;;;;5095353;28;20197;-81
2023/11/07 07:39:27;;;;;;;3.17;0.77;;;9.60;1.00;;;;;;5094340;28;20201;-80
2023/11/07 07:41:56;;;;;;;3.13;1.30;;;9.70;1.00;;;;;;5094870;28;20607;-80
2023/11/07 07:44:24;;;;;;;3.93;0.90;;;9.70;1.00;;;;;;5095243;28;20201;-80
2023/11/07 07:46:51;;;;;;;1.90;0.80;;;9.80;1.00;;;;;;5092691;28;20288;-81
2023/11/07 07:49:23;;;;;;;4.17;0.90;;;9.80;1.00;;;;;;5081553;28;20304;-81
2023/11/07 07:51:52;;;;;;;3.97;1.37;;;9.80;1.00;;;;;;5091764;28;20198;-81
2023/11/07 07:54:22;;;;;;;1.87;0.90;;;9.80;1.00;;;;;;5093266;28;20229;-81
2023/11/07 07:56:49;;;;;;;2.13;0.80;;;9.80;1.00;;;;;;5094710;28;20209;-81
2023/11/07 07:59:16;;;;;;;1.10;0.80;;;9.90;1.00;;;;;;5086767;28;20219;-81
2023/11/07 08:01:43;;;;;;;1.73;0.90;;;10.00;1.00;;;;;;5095279;28;20687;-81
2023/11/07 08:04:12;;;;;;;3.20;0.97;;;10.10;1.00;;;;;;5098372;28;20197;-81
2023/11/07 08:06:40;;;;;;;1.13;0.80;;;10.20;1.00;;;;;;5090636;28;20725;-81
2023/11/07 08:09:12;;;;;;;1.63;0.83;;;10.50;1.00;;;;;;5088130;28;20202;-81
2023/11/07 08:11:39;;;;;;;2.90;1.00;;;10.60;1.00;;;;;;5098367;28;20239;-81
2023/11/07 08:14:06;;;;;;;5.77;0.90;;;10.70;1.00;;;;;;5098656;28;20658;-82
2023/11/07 08:16:33;;;;;;;2.90;0.97;;;10.90;1.00;;;;;;5090393;28;20205;-80
2023/11/07 08:19:00;;;;;;;1.00;0.63;;;11.40;99.90;;;;;;5095550;28;20213;-81
2023/11/07 08:21:27;;;;;;;1.20;0.77;;;11.20;99.90;;;;;;5087421;28;20207;-81
2023/11/07 08:23:55;;;;;;;4.37;0.80;;;10.90;99.90;;;;;;5098213;28;20193;-81
2023/11/07 08:26:24;;;;;;;3.77;1.00;;;11.00;99.90;;;;;;5098152;28;20201;-82
2023/11/07 08:28:50;;;;;;;1.77;0.63;;;11.10;99.90;;;;;;5097726;28;20679;-82
2023/11/07 08:31:17;;;;;;;2.50;0.90;;;11.00;99.90;;;;;;5097505;28;20217;-81
2023/11/07 08:33:47;;;;;;;1.60;1.20;;;10.80;99.90;;;;;;5083015;28;20212;-81
2023/11/07 08:36:14;;;;;;;3.03;1.17;;;10.90;99.90;;;;;;5097633;28;20226;-81
2023/11/07 08:38:41;;;;;;;2.77;1.13;;;11.00;99.90;;;;;;5097588;28;20202;-81
2023/11/07 08:41:09;;;;;;;5.23;1.17;;;11.10;99.90;;;;;;5084859;28;20313;-81
2023/11/07 08:43:38;;;;;;;2.37;1.07;;;11.10;99.90;;;;;;5093304;28;20205;-82
2023/11/07 08:46:05;;;;;;;2.37;1.27;;;11.30;99.90;;;;;;5088930;28;20202;-81
2023/11/07 08:48:34;;;;;;;1.50;0.70;;;11.40;99.90;;;;;;5091553;28;20238;-81
2023/11/07 08:51:02;;;;;;;3.13;0.93;;;11.50;99.90;;;;;;5088661;28;20222;-81
2023/11/07 08:53:28;;;;;;;1.13;0.90;;;11.60;99.90;;;;;;5083373;28;20279;-82
2023/11/07 08:55:55;;;;;;;2.33;0.90;;;11.90;99.90;;;;;;5093584;28;20217;-81
2023/11/07 08:58:25;;;;;;;2.80;1.00;;;12.10;99.90;;;;;;5097806;28;20207;-81
2023/11/07 09:00:53;;;;;;;2.33;0.97;;;11.90;99.90;;;;;;5080965;28;20226;-81
2023/11/07 09:03:19;;;;;;;3.73;1.13;;;11.60;99.90;;;;;;5097301;28;20212;-81
2023/11/07 09:05:46;;;;;;;3.70;1.00;;;11.50;99.90;;;;;;5096762;28;20201;-81
2023/11/07 09:08:13;;;;;;;1.27;0.97;;;11.50;99.90;;;;;;5090001;28;20199;-81
2023/11/07 09:10:40;;;;;;;1.70;0.70;;;11.60;99.90;;;;;;5090369;28;20222;-81
2023/11/07 09:13:07;;;;;;;2.83;0.80;;;11.90;99.90;;;;;;5087867;28;20602;-81
2023/11/07 09:15:36;;;;;;;2.30;0.90;;;11.60;99.90;;;;;;5094654;28;20315;-81
2023/11/07 09:18:02;;;;;;;1.30;0.60;;;11.60;99.90;;;;;;5097082;28;20205;-81
2023/11/07 09:20:29;;;;;;;3.40;0.90;;;11.50;99.90;;;;;;5088836;28;20594;-81
2023/11/07 09:22:56;;;;;;;0.60;0.60;;;11.60;99.90;;;;;;5097125;28;20208;-81
2023/11/07 09:25:24;;;;;;;0.87;0.60;;;11.70;99.90;;;;;;5089334;28;20213;-81
2023/11/07 09:27:51;;;;;;;1.77;0.60;;;11.60;99.90;;;;;;5095830;28;20265;-81
2023/11/07 09:30:19;;;;;;;1.33;1.00;;;11.60;99.90;;;;;;5089625;28;20221;-81
2023/11/07 09:32:48;;;;;;;1.73;0.80;;;11.70;99.90;;;;;;5096348;28;20193;-81
2023/11/07 09:35:15;;;;;;;0.80;0.63;;;11.70;99.90;;;;;;5089557;28;20244;-81
2023/11/07 09:37:42;;;;;;;1.23;0.80;;;11.80;99.90;;;;;;5086318;28;20267;-81
2023/11/07 09:40:13;;;;;;;1.20;0.67;;;11.90;99.90;;;;;;5097103;28;20657;-81
2023/11/07 09:42:42;;;;;;;2.13;1.10;;;12.00;99.90;;;;;;5089998;28;20623;-81
2023/11/07 09:45:14;;;;;;;2.03;0.67;;;11.90;99.90;;;;;;5089063;28;20570;-81
2023/11/07 09:47:45;;;;;;;1.67;0.90;;;12.10;99.90;;;;;;5088828;28;20217;-81
2023/11/07 09:50:15;;;;;;;3.90;1.00;;;12.10;99.90;;;;;;5096696;28;20248;-81
2023/11/07 09:52:45;;;;;;;4.30;1.00;;;12.00;99.00;;;;;;5098195;28;20657;-81
2023/11/07 09:55:15;;;;;;;2.20;0.90;;;12.00;99.90;;;;;;5093791;28;20234;-82
2023/11/07 09:57:47;;;;;;;3.43;0.87;;;12.00;85.60;;;;;;5093911;28;20205;-81
2023/11/07 10:00:19;;;;;;;1.27;0.50;;;11.90;71.50;;;;;;5096162;28;20308;-81
2023/11/07 10:02:46;;;;;;;1.13;0.40;;;12.00;65.70;;;;;;5096450;28;20226;-81
2023/11/07 10:05:15;;;;;;;1.17;0.90;;;12.30;58.60;;;;;;5096777;28;20204;-81
2023/11/07 10:07:42;;;;;;;1.23;1.10;;;12.40;16.80;;;;;;5097212;28;20198;-81
2023/11/07 10:10:10;;;;;;;0.67;0.53;;;12.30;1.00;;;;;;5088338;28;20475;-81
2023/11/07 10:12:42;;;;;;;0.63;0.63;;;12.10;1.00;;;;;;5096877;28;20207;-81
2023/11/07 10:15:19;;;;;;;1.67;0.70;;;12.20;1.00;;;;;;5088748;28;20222;-82
2023/11/07 10:17:59;;;;;;;0.90;0.87;;;12.20;1.00;;;;;;5096224;28;20210;-82
2023/11/07 10:20:27;;;;;;;2.70;0.87;;;12.00;1.00;;;;;;5093696;28;20634;-81
2023/11/07 10:22:54;;;;;;;1.40;0.70;;;12.00;1.00;;;;;;5095567;28;20202;-81
2023/11/07 10:25:29;;;;;;;1.30;0.80;;;11.90;1.00;;;;;;5096277;28;20193;-81
2023/11/07 10:27:59;;;;;;;1.83;0.63;;;11.90;1.00;;;;;;5096500;28;20197;-81
2023/11/07 10:30:35;;;;;;;2.67;0.50;;;12.30;1.00;;;;;;5094986;28;20240;-81
2023/11/07 10:33:03;;;;;;;0.67;0.57;;;12.20;1.00;;;;;;5103498;28;20201;-80
2023/11/07 10:35:31;;;;;;;1.17;0.80;;;12.10;1.00;;;;;;5097472;28;20289;-79
2023/11/07 10:37:58;;;;;;;0.93;0.50;;;12.30;1.00;;;;;;5094182;28;20315;-80
2023/11/07 10:40:25;;;;;;;2.63;0.80;;;12.60;1.00;;;;;;5103566;28;20239;-82
2023/11/07 10:42:52;;;;;;;1.53;0.80;;;12.60;1.00;;;;;;5103502;28;20201;-80
2023/11/07 10:45:21;;;;;;;0.57;0.57;;;12.50;1.00;;;;;;5103193;28;20197;-80
2023/11/07 10:47:49;;;;;;;2.00;0.67;;;12.40;1.00;;;;;;5102981;28;20216;-80
2023/11/07 10:50:17;;;;;;;1.90;0.60;;;12.40;1.00;;;;;;5102133;28;20225;-80
2023/11/07 10:52:47;;;;;;;3.00;0.60;;;12.80;1.00;;;;;;5098372;28;20261;-81
2023/11/07 10:55:14;;;;;;;1.10;0.77;;;12.80;1.00;;;;;;5102340;28;20710;-80
2023/11/07 10:57:49;;;;;;;0.53;0.53;;;12.60;1.00;;;;;;5102367;28;20645;-80
2023/11/07 11:00:20;;;;;;;1.07;0.70;;;12.70;1.00;;;;;;5095595;28;20225;-81
2023/11/07 11:02:53;;;;;;;5.30;0.80;;;12.80;1.00;;;;;;5103377;28;20209;-81
2023/11/07 11:05:23;;;;;;;0.97;0.50;;;13.00;1.00;;;;;;5103836;28;20231;-80
2023/11/07 11:07:53;;;;;;;0.90;0.50;;;13.00;1.00;;;;;;5103114;28;20213;-80
2023/11/07 11:10:27;;;;;;;1.77;0.67;;;13.00;1.00;;;;;;5098623;28;20275;-79
2023/11/07 11:12:54;;;;;;;1.53;0.43;;;13.30;1.00;;;;;;5102423;28;20194;-79
2023/11/07 11:15:22;;;;;;;0.67;0.57;;;13.20;1.00;;;;;;5101841;28;20304;-82
2023/11/07 11:17:55;;;;;;;0.50;0.50;;;13.10;1.00;;;;;;5093395;28;20309;-80
2023/11/07 11:20:30;;;;;;;1.80;0.70;;;13.10;1.00;;;;;;5100841;28;20261;-79
2023/11/07 11:23:06;;;;;;;1.27;0.47;;;13.00;1.00;;;;;;5102926;28;20209;-80
2023/11/07 11:25:44;;;;;;;0.50;0.50;;;12.90;1.00;;;;;;5101394;28;20647;-81
2023/11/07 11:28:11;;;;;;;0.70;0.70;;;12.60;1.00;;;;;;5099669;28;20196;-82
2023/11/07 11:30:40;;;;;;;0.90;0.60;;;12.70;1.00;;;;;;5103212;28;20236;-80
2023/11/07 11:33:08;;;;;;;2.07;0.53;;;12.60;1.00;;;;;;5091850;28;20206;-80
2023/11/07 11:35:38;;;;;;;0.90;0.53;;;12.50;1.00;;;;;;5100603;28;20316;-79
2023/11/07 11:38:12;;;;;;;2.37;0.63;;;12.50;1.00;;;;;;5107666;28;20205;-79
2023/11/07 11:40:54;;;;;;;0.87;0.60;;;12.60;1.00;;;;;;5105806;28;20580;-79
2023/11/07 11:43:23;;;;;;;0.40;0.40;;;12.50;1.00;;;;;;5100980;28;20266;-80
2023/11/07 11:45:51;;;;;;;0.60;0.60;;;12.60;1.00;;;;;;5104153;28;20696;-80
2023/11/07 11:48:19;;;;;;;1.53;0.60;;;12.90;1.00;;;;;;5106474;28;20201;-81
2023/11/07 11:50:46;;;;;;;1.70;0.50;;;13.20;1.00;;;;;;5105532;28;20251;-79
2023/11/07 11:53:33;;;;;;;0.40;0.40;;;13.50;1.00;;;;;;5106522;28;20209;-79
2023/11/07 11:56:10;;;;;;;0.63;0.50;;;13.60;1.00;;;;;;5105306;28;20221;-80
2023/11/07 11:58:38;;;;;;;0.90;0.50;;;13.50;1.00;;;;;;5104393;28;20576;-80
2023/11/07 12:01:05;;;;;;;1.80;0.57;;;13.10;1.00;;;;;;5105111;28;20225;-79
2023/11/07 12:03:37;;;;;;;0.80;0.60;;;12.80;1.00;;;;;;5105247;28;20207;-80
2023/11/07 12:06:06;;;;;;;1.07;0.70;;;12.80;1.00;;;;;;5104285;28;20216;-79
2023/11/07 12:08:36;;;;;;;0.90;0.80;;;12.70;1.00;;;;;;5105907;28;20208;-79
2023/11/07 12:11:04;;;;;;;2.47;0.70;;;12.80;1.00;;;;;;5107376;28;20232;-80
2023/11/07 12:13:31;;;;;;;1.43;0.70;;;12.70;1.00;;;;;;5106746;28;20205;-80
2023/11/07 12:16:10;;;;;;;3.77;0.93;;;12.60;1.00;;;;;;5098311;28;20217;-80
2023/11/07 12:18:41;;;;;;;1.77;0.70;;;12.60;1.00;;;;;;5104643;28;20211;-81
2023/11/07 12:21:09;;;;;;;0.67;0.67;;;12.50;1.00;;;;;;5097180;28;20253;-80
2023/11/07 12:23:37;;;;;;;0.80;0.60;;;12.40;1.00;;;;;;5105895;28;20205;-80
2023/11/07 12:26:04;;;;;;;1.33;0.70;;;12.50;1.00;;;;;;5105551;28;20261;-80
2023/11/07 12:28:31;;;;;;;1.13;0.70;;;12.40;99.90;;;;;;5099039;28;20209;-80
2023/11/07 12:30:58;;;;;;;0.70;0.70;;;12.20;99.90;;;;;;5098092;28;20217;-81
2023/11/07 12:33:24;;;;;;;1.33;0.70;;;12.20;82.80;;;;;;5103842;28;20225;-80
2023/11/07 12:35:55;;;;;;;2.97;0.87;;;12.00;99.90;;;;;;5104862;28;20267;-80
2023/11/07 12:38:23;;;;;;;1.50;0.60;;;12.00;99.90;;;;;;5104856;28;20255;-80
2023/11/07 12:40:51;;;;;;;1.57;0.40;;;11.80;99.90;;;;;;5105207;28;20221;-78
2023/11/07 12:43:18;;;;;;;1.70;0.70;;;11.70;99.90;;;;;;5104813;28;20257;-80
2023/11/07 12:45:47;;;;;;;0.60;0.60;;;11.40;99.90;;;;;;5096904;28;20198;-79
2023/11/07 12:48:24;;;;;;;0.87;0.40;;;11.50;1.00;;;;;;5099149;28;20653;-81
2023/11/07 12:50:51;;;;;;;3.30;0.70;;;11.50;1.00;;;;;;5098797;28;20269;-80
2023/11/07 12:53:19;;;;;;;2.80;0.70;;;11.40;1.00;;;;;;5103846;28;20576;-80
2023/11/07 12:56:03;;;;;;;1.53;0.60;;;11.50;55.90;;;;;;5101754;28;20225;-79
2023/11/07 12:58:30;;;;;;;2.57;0.70;;;11.90;8.30;;;;;;5100070;28;20215;-79
2023/11/07 13:00:58;;;;;;;0.73;0.63;;;12.80;1.00;;;;;;5084353;28;20220;-81
2023/11/07 13:03:28;;;;;;;0.63;0.60;;;12.10;1.00;;;;;;5094444;28;20210;-82